sensor_id;sensor_type;location;lat;lon;timestamp;pressure;altitude;pressure_sealevel;temperature;humidity
17873;BME280;36318;42.620;23.338;2023-02-26T00:00:59;91833.03;;;13.32;59.04
17873;BME280;36318;42.620;23.338;2023-02-26T00:03:25;91785.91;;;13.10;59.96
17873;BME280;36318;42.620;23.338;2023-02-26T00:05:52;91853.28;;;13.22;59.09
17873;BME280;36318;42.620;23.338;2023-02-26T00:08:20;91845.78;;;13.18;58.92
17873;BME280;36318;42.620;23.338;2023-02-26T00:10:46;91816.91;;;13.28;58.76
17873;BME280;36318;42.620;23.338;2023-02-26T00:13:13;91796.44;;;13.17;58.92
17873;BME280;36318;42.620;23.338;2023-02-26T00:15:40;91847.38;;;13.28;58.71
17873;BME280;36318;42.620;23.338;2023-02-26T00:18:08;91791.38;;;13.24;58.53
17873;BME280;36318;42.620;23.338;2023-02-26T00:20:37;91759.13;;;13.25;58.61
17873;BME280;36318;42.620;23.338;2023-02-26T00:23:04;91793.13;;;13.31;58.67
17873;BME280;36318;42.620;23.338;2023-02-26T00:25:32;91803.44;;;13.25;58.49
17873;BME280;36318;42.620;23.338;2023-02-26T00:27:59;91797.91;;;13.19;58.52
17873;BME280;36318;42.620;23.338;2023-02-26T00:30:26;91791.06;;;13.18;58.38
17873;BME280;36318;42.620;23.338;2023-02-26T00:32:52;91811.91;;;13.18;58.67
17873;BME280;36318;42.620;23.338;2023-02-26T00:35:19;91798.22;;;13.16;58.51
17873;BME280;36318;42.620;23.338;2023-02-26T00:37:59;91766.28;;;13.23;57.86
17873;BME280;36318;42.620;23.338;2023-02-26T00:43:14;91824.31;;;13.08;58.59
17873;BME280;36318;42.620;23.338;2023-02-26T00:45:42;91778.59;;;12.98;58.00
17873;BME280;36318;42.620;23.338;2023-02-26T00:48:14;91787.41;;;12.97;58.16
17873;BME280;36318;42.620;23.338;2023-02-26T00:50:45;91771.09;;;13.03;57.93
17873;BME280;36318;42.620;23.338;2023-02-26T00:53:14;91781.91;;;12.92;58.08
17873;BME280;36318;42.620;23.338;2023-02-26T00:55:47;91769.22;;;12.89;58.03
17873;BME280;36318;42.620;23.338;2023-02-26T00:58:15;91793.47;;;12.89;58.01
17873;BME280;36318;42.620;23.338;2023-02-26T01:00:42;91801.63;;;12.78;59.00
17873;BME280;36318;42.620;23.338;2023-02-26T01:03:09;91772.69;;;12.73;58.31
17873;BME280;36318;42.620;23.338;2023-02-26T01:05:36;91763.75;;;12.68;58.96
17873;BME280;36318;42.620;23.338;2023-02-26T01:08:04;91795.00;;;12.68;59.34
17873;BME280;36318;42.620;23.338;2023-02-26T01:10:32;91783.78;;;12.59;59.93
17873;BME280;36318;42.620;23.338;2023-02-26T01:12:59;91777.13;;;12.56;59.47
17873;BME280;36318;42.620;23.338;2023-02-26T01:15:27;91756.44;;;12.63;59.95
17873;BME280;36318;42.620;23.338;2023-02-26T01:17:55;91749.97;;;12.59;59.28
17873;BME280;36318;42.620;23.338;2023-02-26T01:20:28;91753.84;;;12.63;59.17
17873;BME280;36318;42.620;23.338;2023-02-26T01:22:58;91753.38;;;12.59;59.74
17873;BME280;36318;42.620;23.338;2023-02-26T01:25:26;91763.63;;;12.53;59.77
17873;BME280;36318;42.620;23.338;2023-02-26T01:27:55;91733.72;;;12.41;59.89
17873;BME280;36318;42.620;23.338;2023-02-26T01:30:22;91737.44;;;12.54;59.01
17873;BME280;36318;42.620;23.338;2023-02-26T01:32:52;91741.81;;;12.62;58.38
17873;BME280;36318;42.620;23.338;2023-02-26T01:35:26;91713.00;;;12.64;58.52
17873;BME280;36318;42.620;23.338;2023-02-26T01:37:57;91726.06;;;12.55;59.21
17873;BME280;36318;42.620;23.338;2023-02-26T01:40:32;91733.69;;;12.49;59.34
17873;BME280;36318;42.620;23.338;2023-02-26T01:43:02;91673.50;;;12.52;58.30
17873;BME280;36318;42.620;23.338;2023-02-26T01:45:32;91725.66;;;12.75;57.07
17873;BME280;36318;42.620;23.338;2023-02-26T01:48:02;91688.03;;;12.77;56.68
17873;BME280;36318;42.620;23.338;2023-02-26T01:50:31;91688.69;;;12.79;56.72
17873;BME280;36318;42.620;23.338;2023-02-26T01:55:41;91698.13;;;12.80;56.37
17873;BME280;36318;42.620;23.338;2023-02-26T01:58:08;91696.16;;;12.82;56.44
17873;BME280;36318;42.620;23.338;2023-02-26T02:00:35;91684.81;;;12.75;55.87
17873;BME280;36318;42.620;23.338;2023-02-26T02:03:03;91705.22;;;12.94;54.84
17873;BME280;36318;42.620;23.338;2023-02-26T02:05:31;91678.81;;;12.97;54.39
17873;BME280;36318;42.620;23.338;2023-02-26T02:07:58;91688.09;;;13.00;54.90
17873;BME280;36318;42.620;23.338;2023-02-26T02:10:26;91662.38;;;12.97;54.35
17873;BME280;36318;42.620;23.338;2023-02-26T02:12:55;91671.50;;;12.93;54.33
17873;BME280;36318;42.620;23.338;2023-02-26T02:15:26;91670.44;;;12.79;54.72
17873;BME280;36318;42.620;23.338;2023-02-26T02:17:58;91670.13;;;12.82;54.16
17873;BME280;36318;42.620;23.338;2023-02-26T02:23:14;91672.81;;;12.97;53.72
17873;BME280;36318;42.620;23.338;2023-02-26T02:25:51;91675.91;;;12.92;53.57
17873;BME280;36318;42.620;23.338;2023-02-26T02:28:27;91659.59;;;12.98;53.32
17873;BME280;36318;42.620;23.338;2023-02-26T02:31:00;91704.50;;;13.00;53.51
17873;BME280;36318;42.620;23.338;2023-02-26T02:33:31;91678.31;;;13.02;53.70
17873;BME280;36318;42.620;23.338;2023-02-26T02:36:00;91685.00;;;12.96;53.43
17873;BME280;36318;42.620;23.338;2023-02-26T02:38:30;91658.69;;;12.91;53.75
17873;BME280;36318;42.620;23.338;2023-02-26T02:41:04;91676.19;;;13.05;53.23
17873;BME280;36318;42.620;23.338;2023-02-26T02:43:32;91653.69;;;13.04;53.43
17873;BME280;36318;42.620;23.338;2023-02-26T02:46:01;91601.53;;;12.67;53.57
17873;BME280;36318;42.620;23.338;2023-02-26T02:48:31;91662.84;;;13.00;53.28
17873;BME280;36318;42.620;23.338;2023-02-26T02:50:59;91698.63;;;13.06;53.00
17873;BME280;36318;42.620;23.338;2023-02-26T02:53:29;91695.06;;;13.07;52.99
17873;BME280;36318;42.620;23.338;2023-02-26T02:56:00;91696.47;;;13.18;52.64
17873;BME280;36318;42.620;23.338;2023-02-26T02:58:30;91694.25;;;13.07;52.96
17873;BME280;36318;42.620;23.338;2023-02-26T03:00:59;91694.47;;;12.97;53.04
17873;BME280;36318;42.620;23.338;2023-02-26T03:03:29;91675.22;;;12.98;53.12
17873;BME280;36318;42.620;23.338;2023-02-26T03:05:56;91697.63;;;12.77;53.56
17873;BME280;36318;42.620;23.338;2023-02-26T03:08:24;91680.44;;;12.98;52.42
17873;BME280;36318;42.620;23.338;2023-02-26T03:10:52;91691.13;;;13.03;52.71
17873;BME280;36318;42.620;23.338;2023-02-26T03:13:20;91691.38;;;12.94;52.58
17873;BME280;36318;42.620;23.338;2023-02-26T03:15:51;91674.78;;;12.95;52.44
17873;BME280;36318;42.620;23.338;2023-02-26T03:18:22;91678.75;;;13.13;51.87
17873;BME280;36318;42.620;23.338;2023-02-26T03:20:55;91674.34;;;13.14;51.82
17873;BME280;36318;42.620;23.338;2023-02-26T03:23:24;91663.66;;;13.01;52.74
17873;BME280;36318;42.620;23.338;2023-02-26T03:25:55;91682.97;;;13.06;52.52
17873;BME280;36318;42.620;23.338;2023-02-26T03:28:25;91682.81;;;13.16;51.94
17873;BME280;36318;42.620;23.338;2023-02-26T03:30:56;91682.88;;;13.00;52.54
17873;BME280;36318;42.620;23.338;2023-02-26T03:33:25;91688.25;;;12.98;52.52
17873;BME280;36318;42.620;23.338;2023-02-26T03:35:56;91660.53;;;13.13;51.93
17873;BME280;36318;42.620;23.338;2023-02-26T03:38:26;91673.44;;;12.99;52.52
17873;BME280;36318;42.620;23.338;2023-02-26T03:40:56;91677.72;;;12.92;52.24
17873;BME280;36318;42.620;23.338;2023-02-26T03:43:27;91643.25;;;13.12;51.96
17873;BME280;36318;42.620;23.338;2023-02-26T03:45:55;91673.50;;;13.22;51.65
17873;BME280;36318;42.620;23.338;2023-02-26T03:48:24;91679.97;;;13.26;51.45
17873;BME280;36318;42.620;23.338;2023-02-26T03:50:52;91678.66;;;13.30;51.61
17873;BME280;36318;42.620;23.338;2023-02-26T03:53:23;91667.88;;;13.33;51.39
17873;BME280;36318;42.620;23.338;2023-02-26T03:55:51;91678.69;;;13.22;51.81
17873;BME280;36318;42.620;23.338;2023-02-26T03:58:20;91669.25;;;13.21;52.01
17873;BME280;36318;42.620;23.338;2023-02-26T04:00:49;91668.28;;;13.22;51.77
17873;BME280;36318;42.620;23.338;2023-02-26T04:03:20;91676.44;;;13.18;51.91
17873;BME280;36318;42.620;23.338;2023-02-26T04:05:51;91674.81;;;13.17;51.86
17873;BME280;36318;42.620;23.338;2023-02-26T04:08:19;91665.06;;;13.11;51.84
17873;BME280;36318;42.620;23.338;2023-02-26T04:10:51;91677.34;;;13.26;51.34
17873;BME280;36318;42.620;23.338;2023-02-26T04:13:18;91669.38;;;13.27;51.40
17873;BME280;36318;42.620;23.338;2023-02-26T04:15:45;91661.09;;;13.24;51.23
17873;BME280;36318;42.620;23.338;2023-02-26T04:18:12;91643.47;;;13.26;51.09
17873;BME280;36318;42.620;23.338;2023-02-26T04:20:38;91642.22;;;13.22;51.22
17873;BME280;36318;42.620;23.338;2023-02-26T04:23:05;91635.66;;;13.26;50.98
17873;BME280;36318;42.620;23.338;2023-02-26T04:25:32;91631.97;;;13.20;51.54
17873;BME280;36318;42.620;23.338;2023-02-26T04:28:00;91632.78;;;13.21;51.02
17873;BME280;36318;42.620;23.338;2023-02-26T04:30:26;91637.66;;;13.24;51.04
17873;BME280;36318;42.620;23.338;2023-02-26T04:32:53;91605.34;;;13.33;50.52
17873;BME280;36318;42.620;23.338;2023-02-26T04:35:19;91624.91;;;13.29;50.46
17873;BME280;36318;42.620;23.338;2023-02-26T04:37:46;91636.88;;;13.38;50.16
17873;BME280;36318;42.620;23.338;2023-02-26T04:40:12;91604.25;;;13.42;49.78
17873;BME280;36318;42.620;23.338;2023-02-26T04:42:39;91630.03;;;13.37;50.22
17873;BME280;36318;42.620;23.338;2023-02-26T04:45:08;91622.22;;;13.37;50.01
17873;BME280;36318;42.620;23.338;2023-02-26T04:47:34;91628.72;;;13.41;49.37
17873;BME280;36318;42.620;23.338;2023-02-26T04:50:02;91616.66;;;13.40;49.68
17873;BME280;36318;42.620;23.338;2023-02-26T04:52:28;91591.38;;;13.26;49.77
17873;BME280;36318;42.620;23.338;2023-02-26T04:54:55;91593.16;;;13.25;49.78
17873;BME280;36318;42.620;23.338;2023-02-26T04:57:21;91594.25;;;13.31;49.46
17873;BME280;36318;42.620;23.338;2023-02-26T04:59:48;91598.63;;;13.15;49.83
17873;BME280;36318;42.620;23.338;2023-02-26T05:02:16;91581.38;;;13.14;49.83
17873;BME280;36318;42.620;23.338;2023-02-26T05:04:43;91556.88;;;13.38;48.72
17873;BME280;36318;42.620;23.338;2023-02-26T05:07:10;91567.97;;;13.55;48.36
17873;BME280;36318;42.620;23.338;2023-02-26T05:09:36;91586.94;;;13.49;48.60
17873;BME280;36318;42.620;23.338;2023-02-26T05:12:03;91550.72;;;13.54;48.74
17873;BME280;36318;42.620;23.338;2023-02-26T05:14:30;91574.53;;;13.51;48.53
17873;BME280;36318;42.620;23.338;2023-02-26T05:16:56;91591.78;;;13.52;48.69
17873;BME280;36318;42.620;23.338;2023-02-26T05:19:24;91597.72;;;13.46;48.94
17873;BME280;36318;42.620;23.338;2023-02-26T05:21:51;91590.84;;;13.30;49.33
17873;BME280;36318;42.620;23.338;2023-02-26T05:24:17;91552.31;;;13.55;48.88
17873;BME280;36318;42.620;23.338;2023-02-26T05:26:44;91565.47;;;13.61;48.65
17873;BME280;36318;42.620;23.338;2023-02-26T05:29:10;91553.78;;;13.72;48.54
17873;BME280;36318;42.620;23.338;2023-02-26T05:31:37;91575.97;;;13.68;49.05
17873;BME280;36318;42.620;23.338;2023-02-26T05:34:04;91533.91;;;13.71;48.44
17873;BME280;36318;42.620;23.338;2023-02-26T05:36:32;91540.13;;;13.70;48.58
17873;BME280;36318;42.620;23.338;2023-02-26T05:38:58;91533.91;;;13.71;48.44
17873;BME280;36318;42.620;23.338;2023-02-26T05:41:25;91519.53;;;13.75;48.37
17873;BME280;36318;42.620;23.338;2023-02-26T05:43:51;91465.75;;;13.89;48.06
17873;BME280;36318;42.620;23.338;2023-02-26T05:46:18;91525.53;;;13.90;47.91
17873;BME280;36318;42.620;23.338;2023-02-26T05:48:44;91529.16;;;13.89;48.17
17873;BME280;36318;42.620;23.338;2023-02-26T05:51:11;91525.63;;;13.97;47.86
17873;BME280;36318;42.620;23.338;2023-02-26T05:53:39;91534.97;;;13.91;47.97
17873;BME280;36318;42.620;23.338;2023-02-26T05:56:06;91542.53;;;13.86;48.47
17873;BME280;36318;42.620;23.338;2023-02-26T05:58:32;91550.28;;;13.94;48.27
17873;BME280;36318;42.620;23.338;2023-02-26T06:00:59;91564.13;;;13.95;48.01
17873;BME280;36318;42.620;23.338;2023-02-26T06:03:26;91552.88;;;13.94;48.12
17873;BME280;36318;42.620;23.338;2023-02-26T06:05:52;91546.13;;;14.00;47.54
17873;BME280;36318;42.620;23.338;2023-02-26T06:08:19;91556.94;;;13.97;47.58
17873;BME280;36318;42.620;23.338;2023-02-26T06:10:47;91522.47;;;14.01;47.65
17873;BME280;36318;42.620;23.338;2023-02-26T06:13:15;91551.78;;;14.03;48.06
17873;BME280;36318;42.620;23.338;2023-02-26T06:15:41;91507.16;;;14.13;47.18
17873;BME280;36318;42.620;23.338;2023-02-26T06:18:08;91533.97;;;14.21;47.40
17873;BME280;36318;42.620;23.338;2023-02-26T06:20:34;91541.44;;;14.24;47.04
17873;BME280;36318;42.620;23.338;2023-02-26T06:23:01;91560.25;;;14.34;47.46
17873;BME280;36318;42.620;23.338;2023-02-26T06:25:27;91547.13;;;14.49;46.44
17873;BME280;36318;42.620;23.338;2023-02-26T06:27:55;91552.09;;;14.59;46.60
17873;BME280;36318;42.620;23.338;2023-02-26T06:30:22;91540.13;;;14.71;46.60
17873;BME280;36318;42.620;23.338;2023-02-26T06:32:49;91533.31;;;14.70;46.31
17873;BME280;36318;42.620;23.338;2023-02-26T06:35:15;91536.91;;;14.69;45.85
17873;BME280;36318;42.620;23.338;2023-02-26T06:37:42;91545.19;;;14.72;45.61
17873;BME280;36318;42.620;23.338;2023-02-26T06:40:09;91544.00;;;14.75;45.45
17873;BME280;36318;42.620;23.338;2023-02-26T06:42:36;91550.31;;;14.80;45.66
17873;BME280;36318;42.620;23.338;2023-02-26T06:45:04;91531.81;;;14.82;45.91
17873;BME280;36318;42.620;23.338;2023-02-26T06:47:31;91563.84;;;14.90;45.75
17873;BME280;36318;42.620;23.338;2023-02-26T06:49:57;91553.47;;;14.97;45.71
17873;BME280;36318;42.620;23.338;2023-02-26T06:52:24;91578.59;;;14.98;45.33
17873;BME280;36318;42.620;23.338;2023-02-26T06:54:51;91527.16;;;14.98;44.46
17873;BME280;36318;42.620;23.338;2023-02-26T06:57:17;91527.22;;;15.05;44.24
17873;BME280;36318;42.620;23.338;2023-02-26T06:59:44;91540.09;;;15.07;44.88
17873;BME280;36318;42.620;23.338;2023-02-26T07:02:14;91529.00;;;15.26;45.02
17873;BME280;36318;42.620;23.338;2023-02-26T07:04:41;91495.41;;;15.50;44.74
17873;BME280;36318;42.620;23.338;2023-02-26T07:07:08;91568.88;;;15.55;44.51
17873;BME280;36318;42.620;23.338;2023-02-26T07:09:34;91474.88;;;15.47;43.96
17873;BME280;36318;42.620;23.338;2023-02-26T07:12:01;91521.88;;;15.69;44.43
17873;BME280;36318;42.620;23.338;2023-02-26T07:14:27;91481.88;;;15.75;43.83
17873;BME280;36318;42.620;23.338;2023-02-26T07:16:54;91479.97;;;15.96;43.19
17873;BME280;36318;42.620;23.338;2023-02-26T07:19:22;91482.31;;;15.78;43.55
17873;BME280;36318;42.620;23.338;2023-02-26T07:21:49;91514.25;;;16.08;43.61
17873;BME280;36318;42.620;23.338;2023-02-26T07:24:15;91499.81;;;16.25;43.24
17873;BME280;36318;42.620;23.338;2023-02-26T07:26:42;91515.84;;;16.09;43.24
17873;BME280;36318;42.620;23.338;2023-02-26T07:29:09;91497.28;;;16.45;43.41
17873;BME280;36318;42.620;23.338;2023-02-26T07:31:35;91480.13;;;16.42;42.15
17873;BME280;36318;42.620;23.338;2023-02-26T07:34:02;91491.75;;;16.20;42.89
17873;BME280;36318;42.620;23.338;2023-02-26T07:36:30;91450.28;;;16.30;42.81
17873;BME280;36318;42.620;23.338;2023-02-26T07:38:56;91504.47;;;16.30;42.51
17873;BME280;36318;42.620;23.338;2023-02-26T07:41:23;91520.53;;;16.67;42.28
17873;BME280;36318;42.620;23.338;2023-02-26T07:43:50;91511.31;;;16.98;41.91
17873;BME280;36318;42.620;23.338;2023-02-26T07:46:16;91510.94;;;17.20;41.60
17873;BME280;36318;42.620;23.338;2023-02-26T07:48:43;91527.91;;;17.24;41.20
17873;BME280;36318;42.620;23.338;2023-02-26T07:51:10;91537.97;;;17.21;41.04
17873;BME280;36318;42.620;23.338;2023-02-26T07:53:38;91512.75;;;17.20;41.21
17873;BME280;36318;42.620;23.338;2023-02-26T07:56:04;91500.25;;;17.35;40.62
17873;BME280;36318;42.620;23.338;2023-02-26T07:58:31;91494.38;;;17.33;40.44
17873;BME280;36318;42.620;23.338;2023-02-26T08:00:57;91496.00;;;17.27;40.66
17873;BME280;36318;42.620;23.338;2023-02-26T08:03:24;91507.09;;;17.82;39.91
17873;BME280;36318;42.620;23.338;2023-02-26T08:05:50;91479.28;;;17.61;39.91
17873;BME280;36318;42.620;23.338;2023-02-26T08:08:17;91516.41;;;17.58;40.41
17873;BME280;36318;42.620;23.338;2023-02-26T08:10:45;91521.03;;;17.69;39.57
17873;BME280;36318;42.620;23.338;2023-02-26T08:13:12;91527.91;;;17.83;40.09
17873;BME280;36318;42.620;23.338;2023-02-26T08:15:38;91516.53;;;18.03;39.75
17873;BME280;36318;42.620;23.338;2023-02-26T08:18:08;91517.78;;;17.48;40.00
17873;BME280;36318;42.620;23.338;2023-02-26T08:20:34;91520.03;;;17.24;40.18
17873;BME280;36318;42.620;23.338;2023-02-26T08:23:01;91516.19;;;17.14;40.70
17873;BME280;36318;42.620;23.338;2023-02-26T08:25:27;91532.72;;;17.14;41.06
17873;BME280;36318;42.620;23.338;2023-02-26T08:27:55;91522.59;;;16.79;40.63
17873;BME280;36318;42.620;23.338;2023-02-26T08:30:22;91542.56;;;16.93;40.96
17873;BME280;36318;42.620;23.338;2023-02-26T08:32:49;91544.31;;;16.66;40.80
17873;BME280;36318;42.620;23.338;2023-02-26T08:35:16;91542.50;;;16.66;41.23
17873;BME280;36318;42.620;23.338;2023-02-26T08:37:42;91550.97;;;16.62;41.39
17873;BME280;36318;42.620;23.338;2023-02-26T08:40:09;91552.31;;;16.51;41.11
17873;BME280;36318;42.620;23.338;2023-02-26T08:42:36;91556.41;;;16.73;40.98
17873;BME280;36318;42.620;23.338;2023-02-26T08:45:05;91574.97;;;16.72;41.17
17873;BME280;36318;42.620;23.338;2023-02-26T08:47:32;91582.44;;;16.82;41.01
17873;BME280;36318;42.620;23.338;2023-02-26T08:49:58;91566.94;;;16.80;41.00
17873;BME280;36318;42.620;23.338;2023-02-26T08:52:25;91574.47;;;17.03;40.91
17873;BME280;36318;42.620;23.338;2023-02-26T08:54:51;91532.84;;;16.73;40.36
17873;BME280;36318;42.620;23.338;2023-02-26T08:57:18;91572.59;;;16.90;40.52
17873;BME280;36318;42.620;23.338;2023-02-26T08:59:45;91578.31;;;17.26;40.48
17873;BME280;36318;42.620;23.338;2023-02-26T09:02:13;91597.75;;;17.58;39.91
17873;BME280;36318;42.620;23.338;2023-02-26T09:04:39;91554.94;;;17.77;40.08
17873;BME280;36318;42.620;23.338;2023-02-26T09:07:06;91590.09;;;17.89;39.48
17873;BME280;36318;42.620;23.338;2023-02-26T09:09:33;91584.56;;;18.24;38.54
17873;BME280;36318;42.620;23.338;2023-02-26T09:11:59;91600.25;;;18.63;38.26
17873;BME280;36318;42.620;23.338;2023-02-26T09:14:26;91597.56;;;19.21;37.43
17873;BME280;36318;42.620;23.338;2023-02-26T09:16:52;91608.81;;;19.41;37.07
17873;BME280;36318;42.620;23.338;2023-02-26T09:19:20;91601.16;;;18.88;37.69
17873;BME280;36318;42.620;23.338;2023-02-26T09:21:47;91585.13;;;19.03;37.16
17873;BME280;36318;42.620;23.338;2023-02-26T09:24:14;91574.94;;;19.51;36.66
17873;BME280;36318;42.620;23.338;2023-02-26T09:26:40;91579.72;;;19.60;36.82
17873;BME280;36318;42.620;23.338;2023-02-26T09:29:07;91581.63;;;20.46;36.25
17873;BME280;36318;42.620;23.338;2023-02-26T09:31:34;91517.13;;;20.96;34.80
17873;BME280;36318;42.620;23.338;2023-02-26T09:34:00;91576.25;;;19.91;35.16
17873;BME280;36318;42.620;23.338;2023-02-26T09:36:28;91560.22;;;19.05;36.25
17873;BME280;36318;42.620;23.338;2023-02-26T09:38:55;91612.69;;;19.63;35.66
17873;BME280;36318;42.620;23.338;2023-02-26T09:41:26;91504.81;;;19.81;35.64
17873;BME280;36318;42.620;23.338;2023-02-26T09:43:59;91594.25;;;18.94;36.32
17873;BME280;36318;42.620;23.338;2023-02-26T09:46:30;91600.94;;;19.41;35.86
17873;BME280;36318;42.620;23.338;2023-02-26T09:49:02;91617.78;;;19.64;36.09
17873;BME280;36318;42.620;23.338;2023-02-26T09:51:31;91612.44;;;20.20;35.97
17873;BME280;36318;42.620;23.338;2023-02-26T09:54:00;91584.41;;;19.83;35.66
17873;BME280;36318;42.620;23.338;2023-02-26T09:56:32;91596.97;;;19.56;36.65
17873;BME280;36318;42.620;23.338;2023-02-26T09:59:01;91580.66;;;19.73;35.51
17873;BME280;36318;42.620;23.338;2023-02-26T10:01:28;91577.16;;;19.54;36.29
17873;BME280;36318;42.620;23.338;2023-02-26T10:03:59;91577.06;;;19.29;36.06
17873;BME280;36318;42.620;23.338;2023-02-26T10:06:27;91569.03;;;18.16;37.66
17873;BME280;36318;42.620;23.338;2023-02-26T10:09:05;91563.66;;;18.62;37.33
17873;BME280;36318;42.620;23.338;2023-02-26T10:11:35;91563.38;;;19.21;37.28
17873;BME280;36318;42.620;23.338;2023-02-26T10:14:09;91551.38;;;18.93;37.14
17873;BME280;36318;42.620;23.338;2023-02-26T10:16:38;91554.34;;;19.03;37.77
17873;BME280;36318;42.620;23.338;2023-02-26T10:19:07;91546.19;;;18.80;36.87
17873;BME280;36318;42.620;23.338;2023-02-26T10:21:37;91551.78;;;18.33;37.71
17873;BME280;36318;42.620;23.338;2023-02-26T10:24:10;91535.47;;;18.24;37.51
17873;BME280;36318;42.620;23.338;2023-02-26T10:26:39;91541.59;;;18.63;36.76
17873;BME280;36318;42.620;23.338;2023-02-26T10:29:10;91533.78;;;18.56;36.87
17873;BME280;36318;42.620;23.338;2023-02-26T10:31:42;91554.84;;;18.30;37.65
17873;BME280;36318;42.620;23.338;2023-02-26T10:34:16;91547.56;;;18.32;37.84
17873;BME280;36318;42.620;23.338;2023-02-26T10:36:50;91547.63;;;18.19;37.81
17873;BME280;36318;42.620;23.338;2023-02-26T10:39:22;91507.53;;;17.59;37.53
17873;BME280;36318;42.620;23.338;2023-02-26T10:41:52;91545.50;;;17.57;38.58
17873;BME280;36318;42.620;23.338;2023-02-26T10:44:20;91521.03;;;17.43;38.79
17873;BME280;36318;42.620;23.338;2023-02-26T10:46:49;91503.47;;;17.17;38.86
17873;BME280;36318;42.620;23.338;2023-02-26T10:49:24;91501.25;;;17.08;39.17
17873;BME280;36318;42.620;23.338;2023-02-26T10:51:52;91524.22;;;17.06;38.76
17873;BME280;36318;42.620;23.338;2023-02-26T10:54:20;91427.66;;;17.03;39.07
17873;BME280;36318;42.620;23.338;2023-02-26T10:56:50;91518.97;;;17.06;40.01
17873;BME280;36318;42.620;23.338;2023-02-26T10:59:17;91510.94;;;17.14;40.66
17873;BME280;36318;42.620;23.338;2023-02-26T11:01:44;91544.00;;;17.15;40.29
17873;BME280;36318;42.620;23.338;2023-02-26T11:04:12;91508.06;;;16.83;40.16
17873;BME280;36318;42.620;23.338;2023-02-26T11:06:44;91524.41;;;16.91;41.12
17873;BME280;36318;42.620;23.338;2023-02-26T11:09:14;91509.03;;;16.68;41.23
17873;BME280;36318;42.620;23.338;2023-02-26T11:11:45;91513.28;;;16.69;40.63
17873;BME280;36318;42.620;23.338;2023-02-26T11:14:14;91484.66;;;16.61;40.63
17873;BME280;36318;42.620;23.338;2023-02-26T11:16:42;91518.53;;;16.69;40.70
17873;BME280;36318;42.620;23.338;2023-02-26T11:19:11;91490.44;;;16.50;40.61
17873;BME280;36318;42.620;23.338;2023-02-26T11:21:39;91507.63;;;16.59;40.85
17873;BME280;36318;42.620;23.338;2023-02-26T11:24:07;91492.72;;;16.66;40.59
17873;BME280;36318;42.620;23.338;2023-02-26T11:26:37;91429.97;;;16.52;40.98
17873;BME280;36318;42.620;23.338;2023-02-26T11:29:04;91491.09;;;16.65;41.02
17873;BME280;36318;42.620;23.338;2023-02-26T11:31:32;91504.44;;;16.77;41.25
17873;BME280;36318;42.620;23.338;2023-02-26T11:34:01;91500.81;;;16.85;41.37
17873;BME280;36318;42.620;23.338;2023-02-26T11:36:29;91528.84;;;16.91;41.49
17873;BME280;36318;42.620;23.338;2023-02-26T11:38:57;91451.59;;;16.60;41.44
17873;BME280;36318;42.620;23.338;2023-02-26T11:41:26;91525.78;;;16.67;41.87
17873;BME280;36318;42.620;23.338;2023-02-26T11:43:57;91524.59;;;16.70;41.64
17873;BME280;36318;42.620;23.338;2023-02-26T11:46:24;91542.69;;;16.58;41.51
17873;BME280;36318;42.620;23.338;2023-02-26T11:48:52;91562.00;;;16.57;41.84
17873;BME280;36318;42.620;23.338;2023-02-26T11:51:21;91563.84;;;16.63;42.14
17873;BME280;36318;42.620;23.338;2023-02-26T11:53:50;91580.16;;;16.59;42.89
17873;BME280;36318;42.620;23.338;2023-02-26T11:56:21;91599.69;;;16.56;43.32
17873;BME280;36318;42.620;23.338;2023-02-26T11:58:49;91582.13;;;16.50;43.94
17873;BME280;36318;42.620;23.338;2023-02-26T12:01:17;91588.50;;;16.41;44.57
17873;BME280;36318;42.620;23.338;2023-02-26T12:03:44;91505.72;;;15.93;44.53
17873;BME280;36318;42.620;23.338;2023-02-26T12:06:15;91552.13;;;16.12;44.84
17873;BME280;36318;42.620;23.338;2023-02-26T12:08:42;91595.69;;;16.26;45.09
17873;BME280;36318;42.620;23.338;2023-02-26T12:11:14;91569.94;;;16.30;45.51
17873;BME280;36318;42.620;23.338;2023-02-26T12:13:46;91578.59;;;16.30;44.64
17873;BME280;36318;42.620;23.338;2023-02-26T12:16:18;91570.94;;;16.29;45.23
17873;BME280;36318;42.620;23.338;2023-02-26T12:18:52;91591.78;;;16.50;44.65
17873;BME280;36318;42.620;23.338;2023-02-26T12:24:09;91592.91;;;16.34;44.91
17873;BME280;36318;42.620;23.338;2023-02-26T12:26:39;91610.09;;;16.50;44.82
17873;BME280;36318;42.620;23.338;2023-02-26T12:31:55;91659.03;;;16.70;45.07
17873;BME280;36318;42.620;23.338;2023-02-26T12:34:33;91630.47;;;16.89;44.96
17873;BME280;36318;42.620;23.338;2023-02-26T12:37:06;91644.81;;;17.06;44.75
17873;BME280;36318;42.620;23.338;2023-02-26T12:39:52;91649.28;;;17.12;45.37
17873;BME280;36318;42.620;23.338;2023-02-26T12:42:25;91663.84;;;17.21;45.39
17873;BME280;36318;42.620;23.338;2023-02-26T12:45:06;91699.25;;;16.97;45.59
17873;BME280;36318;42.620;23.338;2023-02-26T12:47:40;91688.41;;;17.07;45.85
17873;BME280;36318;42.620;23.338;2023-02-26T12:50:20;91665.47;;;17.22;45.77
17873;BME280;36318;42.620;23.338;2023-02-26T12:52:57;91703.03;;;17.42;45.89
17873;BME280;36318;42.620;23.338;2023-02-26T12:55:29;91719.94;;;17.33;45.33
17873;BME280;36318;42.620;23.338;2023-02-26T13:04:02;91711.38;;;17.05;46.91
17873;BME280;36318;42.620;23.338;2023-02-26T13:06:44;91708.66;;;16.85;46.02
17873;BME280;36318;42.620;23.338;2023-02-26T13:09:19;91721.13;;;16.77;46.30
17873;BME280;36318;42.620;23.338;2023-02-26T13:11:55;91713.09;;;16.85;45.74
17873;BME280;36318;42.620;23.338;2023-02-26T13:14:30;91698.56;;;16.76;46.35
17873;BME280;36318;42.620;23.338;2023-02-26T13:17:00;91746.28;;;16.71;46.32